Time;durP1;ratioP1;P1;durP2;ratioP2;P2;SDS_P1;SDS_P2;PMS_P1;PMS_P2;Temp;Humidity;BMP_temperature;BMP_pressure;BME280_temperature;BME280_humidity;BME280_pressure;Samples;Min_cycle;Max_cycle;Signal;HPM_P1;HPM_P2
2022/08/20 00:00:33;;;;;;;;;;;;;;;;;;5046270;28;19909;-48
2022/08/20 00:02:59;;;;;;;;;;;;;;;;;;5046937;28;19909;-46
2022/08/20 00:05:25;;;;;;;;;;;;;;;;;;5046597;28;19913;-48
2022/08/20 00:07:51;;;;;;;;;;;;;;;;;;5046465;28;19913;-47
2022/08/20 00:10:17;;;;;;;;;;;;;;;;;;5046222;28;20383;-48
2022/08/20 00:12:44;;;;;;;;;;;;;;;;;;5046082;28;19912;-47
2022/08/20 00:15:11;;;;;;;;;;;;;;;;;;5046180;28;20000;-48
2022/08/20 00:17:37;;;;;;;;;;;;;;;;;;5045735;28;20023;-47
2022/08/20 00:20:06;;;;;;;;;;;;;;;;;;5045477;28;20229;-44
2022/08/20 00:22:33;;;;;;;;;;;;;;;;;;5046118;28;19908;-45
2022/08/20 00:25:00;;;;;;;;;;;;;;;;;;5046070;28;20398;-46
2022/08/20 00:27:26;;;;;;;;;;;;;;;;;;5046367;28;19913;-47
2022/08/20 00:29:52;;;;;;;;;;;;;;;;;;5045843;28;20513;-45
2022/08/20 00:32:17;;;;;;;;;;;;;;;;;;5045668;28;19909;-45
2022/08/20 00:34:43;;;;;;;;;;;;;;;;;;5045825;28;20355;-44
2022/08/20 00:37:09;;;;;;;;;;;;;;;;;;5045683;28;19916;-46
2022/08/20 00:39:35;;;;;;;;;;;;;;;;;;5045501;28;19920;-44
2022/08/20 00:42:02;;;;;;;;;;;;;;;;;;5045996;28;19909;-44
2022/08/20 00:44:28;;;;;;;;;;;;;;;;;;5046406;28;19916;-43
2022/08/20 00:46:55;;;;;;;;;;;;;;;;;;5045494;28;19957;-44
2022/08/20 00:49:21;;;;;;;;;;;;;;;;;;5045985;28;20440;-45
2022/08/20 00:51:47;;;;;;;;;;;;;;;;;;5045143;28;19909;-44
2022/08/20 00:54:13;;;;;;;;;;;;;;;;;;5045384;28;19970;-46
2022/08/20 00:56:39;;;;;;;;;;;;;;;;;;5045146;28;19913;-43
2022/08/20 00:59:06;;;;;;;;;;;;;;;;;;5045827;28;19956;-44
2022/08/20 01:01:33;;;;;;;;;;;;;;;;;;5045072;28;19920;-47
2022/08/20 01:03:59;;;;;;;;;;;;;;;;;;5045706;28;19912;-44
2022/08/20 01:06:25;;;;;;;;;;;;;;;;;;5045178;28;19909;-47
2022/08/20 01:08:51;;;;;;;;;;;;;;;;;;5045216;28;19936;-45
2022/08/20 01:11:21;;;;;;;;;;;;;;;;;;5045191;28;19913;-46
2022/08/20 01:13:47;;;;;;;;;;;;;;;;;;5045020;28;20371;-47
2022/08/20 01:16:13;;;;;;;;;;;;;;;;;;5045215;28;19916;-47
2022/08/20 01:18:39;;;;;;;;;;;;;;;;;;5044828;28;19920;-44
2022/08/20 01:21:05;;;;;;;;;;;;;;;;;;5045095;28;19915;-45
2022/08/20 01:23:31;;;;;;;;;;;;;;;;;;5045610;28;19909;-47
2022/08/20 01:25:59;;;;;;;;;;;;;;;;;;5045783;28;19909;-45
2022/08/20 01:28:25;;;;;;;;;;;;;;;;;;5045183;28;19956;-47
2022/08/20 01:30:50;;;;;;;;;;;;;;;;;;5045063;28;20344;-47
2022/08/20 01:33:16;;;;;;;;;;;;;;;;;;5044751;28;19909;-44
2022/08/20 01:35:43;;;;;;;;;;;;;;;;;;5046778;28;19915;-45
2022/08/20 01:38:09;;;;;;;;;;;;;;;;;;5049375;28;19924;-45
2022/08/20 01:40:35;;;;;;;;;;;;;;;;;;5048821;28;19916;-48
2022/08/20 01:43:05;;;;;;;;;;;;;;;;;;5048944;28;20338;-44
2022/08/20 01:45:31;;;;;;;;;;;;;;;;;;5048995;28;19931;-46
2022/08/20 01:47:58;;;;;;;;;;;;;;;;;;5049282;28;19995;-46
2022/08/20 01:50:24;;;;;;;;;;;;;;;;;;5049100;28;19970;-47
2022/08/20 01:52:50;;;;;;;;;;;;;;;;;;5048641;28;19913;-47
2022/08/20 01:55:15;;;;;;;;;;;;;;;;;;5048903;28;20426;-48
2022/08/20 01:57:41;;;;;;;;;;;;;;;;;;5048490;28;19912;-47
2022/08/20 02:00:08;;;;;;;;;;;;;;;;;;5048646;28;19913;-45
2022/08/20 02:02:34;;;;;;;;;;;;;;;;;;5048248;28;19913;-44
2022/08/20 02:05:00;;;;;;;;;;;;;;;;;;5049520;28;20523;-43
2022/08/20 02:07:26;;;;;;;;;;;;;;;;;;5048989;28;19917;-46
2022/08/20 02:09:52;;;;;;;;;;;;;;;;;;5048533;28;19916;-46
2022/08/20 02:12:17;;;;;;;;;;;;;;;;;;5048700;28;19955;-48
2022/08/20 02:14:43;;;;;;;;;;;;;;;;;;5048775;28;19940;-45
2022/08/20 02:17:09;;;;;;;;;;;;;;;;;;5048649;28;19920;-45
2022/08/20 02:19:37;;;;;;;;;;;;;;;;;;5048189;28;20398;-44
2022/08/20 02:22:03;;;;;;;;;;;;;;;;;;5048450;28;19951;-45
2022/08/20 02:24:30;;;;;;;;;;;;;;;;;;5049084;28;19909;-45
2022/08/20 02:26:56;;;;;;;;;;;;;;;;;;5048794;28;20438;-45
2022/08/20 02:29:22;;;;;;;;;;;;;;;;;;5048191;28;19913;-47
2022/08/20 02:31:48;;;;;;;;;;;;;;;;;;5047307;28;20379;-46
2022/08/20 02:34:14;;;;;;;;;;;;;;;;;;5048428;28;19915;-46
2022/08/20 02:36:40;;;;;;;;;;;;;;;;;;5048027;28;19916;-45
2022/08/20 02:39:06;;;;;;;;;;;;;;;;;;5048434;28;20422;-44
2022/08/20 02:41:33;;;;;;;;;;;;;;;;;;5048039;28;19909;-45
2022/08/20 02:43:59;;;;;;;;;;;;;;;;;;5048267;28;19920;-45
2022/08/20 02:46:27;;;;;;;;;;;;;;;;;;5047173;28;19965;-47
2022/08/20 02:48:54;;;;;;;;;;;;;;;;;;5047169;28;19909;-46
2022/08/20 02:51:20;;;;;;;;;;;;;;;;;;5048038;28;20050;-46
2022/08/20 02:53:45;;;;;;;;;;;;;;;;;;5047167;28;20007;-44
2022/08/20 02:56:11;;;;;;;;;;;;;;;;;;5047988;28;19938;-46
2022/08/20 02:58:37;;;;;;;;;;;;;;;;;;5047251;28;19913;-46
2022/08/20 03:01:03;;;;;;;;;;;;;;;;;;5047678;28;20000;-47
2022/08/20 03:03:29;;;;;;;;;;;;;;;;;;5048179;28;20325;-44
2022/08/20 03:05:55;;;;;;;;;;;;;;;;;;5047338;28;19917;-48
2022/08/20 03:08:21;;;;;;;;;;;;;;;;;;5047614;28;19916;-45
2022/08/20 03:10:47;;;;;;;;;;;;;;;;;;5047260;28;19913;-44
2022/08/20 03:13:14;;;;;;;;;;;;;;;;;;5047216;28;19905;-44
2022/08/20 03:15:40;;;;;;;;;;;;;;;;;;5047151;28;19935;-48
2022/08/20 03:18:06;;;;;;;;;;;;;;;;;;5047245;28;20383;-46
2022/08/20 03:20:31;;;;;;;;;;;;;;;;;;5047653;28;19919;-43
2022/08/20 03:22:57;;;;;;;;;;;;;;;;;;5047761;28;19979;-45
2022/08/20 03:25:23;;;;;;;;;;;;;;;;;;5047485;28;19996;-45
2022/08/20 03:27:49;;;;;;;;;;;;;;;;;;5046808;28;19999;-46
2022/08/20 03:30:16;;;;;;;;;;;;;;;;;;5047026;28;19916;-47
2022/08/20 03:32:42;;;;;;;;;;;;;;;;;;5046583;28;19964;-45
2022/08/20 03:35:08;;;;;;;;;;;;;;;;;;5047207;28;19955;-46
2022/08/20 03:37:34;;;;;;;;;;;;;;;;;;5046708;28;19916;-43
2022/08/20 03:40:00;;;;;;;;;;;;;;;;;;5047693;28;20399;-46
2022/08/20 03:42:26;;;;;;;;;;;;;;;;;;5046701;28;19948;-47
2022/08/20 03:44:52;;;;;;;;;;;;;;;;;;5046488;28;20488;-48
2022/08/20 03:47:17;;;;;;;;;;;;;;;;;;5046670;28;19908;-45
2022/08/20 03:49:45;;;;;;;;;;;;;;;;;;5046605;28;19909;-45
2022/08/20 03:52:11;;;;;;;;;;;;;;;;;;5046759;28;19913;-48
2022/08/20 03:54:36;;;;;;;;;;;;;;;;;;5046324;28;19916;-44
2022/08/20 03:57:03;;;;;;;;;;;;;;;;;;5046633;28;20315;-45
2022/08/20 03:59:31;;;;;;;;;;;;;;;;;;5047258;28;19909;-48
2022/08/20 04:01:58;;;;;;;;;;;;;;;;;;5046999;28;19912;-43
2022/08/20 04:04:24;;;;;;;;;;;;;;;;;;5046416;28;19909;-44
2022/08/20 04:06:50;;;;;;;;;;;;;;;;;;5046415;28;19957;-44
2022/08/20 04:09:16;;;;;;;;;;;;;;;;;;5046535;28;19909;-45
2022/08/20 04:11:42;;;;;;;;;;;;;;;;;;5046274;28;19909;-47
2022/08/20 04:14:08;;;;;;;;;;;;;;;;;;5046093;28;19936;-45
2022/08/20 04:16:34;;;;;;;;;;;;;;;;;;5045989;28;20384;-44
2022/08/20 04:19:02;;;;;;;;;;;;;;;;;;5046870;28;19923;-44
2022/08/20 04:21:28;;;;;;;;;;;;;;;;;;5046778;28;20386;-45
2022/08/20 04:23:55;;;;;;;;;;;;;;;;;;5045693;28;19913;-47
2022/08/20 04:26:21;;;;;;;;;;;;;;;;;;5046140;28;19917;-43
2022/08/20 04:28:48;;;;;;;;;;;;;;;;;;5045693;28;19954;-47
2022/08/20 04:31:16;;;;;;;;;;;;;;;;;;5046057;28;19909;-46
2022/08/20 04:33:43;;;;;;;;;;;;;;;;;;5045614;28;19913;-47
2022/08/20 04:36:08;;;;;;;;;;;;;;;;;;5045927;28;19909;-46
2022/08/20 04:38:34;;;;;;;;;;;;;;;;;;5045421;28;19947;-47
2022/08/20 04:41:00;;;;;;;;;;;;;;;;;;5047068;28;19948;-43
2022/08/20 04:43:26;;;;;;;;;;;;;;;;;;5046077;28;19971;-45
2022/08/20 04:45:54;;;;;;;;;;;;;;;;;;5045464;28;19955;-45
2022/08/20 04:48:21;;;;;;;;;;;;;;;;;;5045732;28;19911;-48
2022/08/20 04:50:47;;;;;;;;;;;;;;;;;;5045441;28;19913;-43
2022/08/20 04:53:13;;;;;;;;;;;;;;;;;;5045212;28;19905;-47
2022/08/20 04:55:41;;;;;;;;;;;;;;;;;;5045437;28;19917;-45
2022/08/20 04:58:08;;;;;;;;;;;;;;;;;;5045461;28;19913;-45
2022/08/20 05:00:34;;;;;;;;;;;;;;;;;;5044845;28;20383;-45
2022/08/20 05:03:01;;;;;;;;;;;;;;;;;;5046522;28;19944;-45
2022/08/20 05:05:27;;;;;;;;;;;;;;;;;;5046069;28;19916;-46
2022/08/20 05:07:53;;;;;;;;;;;;;;;;;;5045164;28;19908;-46
2022/08/20 05:10:22;;;;;;;;;;;;;;;;;;5044843;28;19936;-47
2022/08/20 05:12:49;;;;;;;;;;;;;;;;;;5044874;28;19963;-47
2022/08/20 05:15:15;;;;;;;;;;;;;;;;;;5045055;28;19913;-47
2022/08/20 05:17:41;;;;;;;;;;;;;;;;;;5045099;28;19924;-48
2022/08/20 05:20:06;;;;;;;;;;;;;;;;;;5045632;28;19913;-45
2022/08/20 05:22:32;;;;;;;;;;;;;;;;;;5044941;28;19909;-44
2022/08/20 05:25:00;;;;;;;;;;;;;;;;;;5046040;28;19915;-46
2022/08/20 05:27:26;;;;;;;;;;;;;;;;;;5045766;28;19913;-47
2022/08/20 05:29:52;;;;;;;;;;;;;;;;;;5044689;28;19920;-47
2022/08/20 05:32:19;;;;;;;;;;;;;;;;;;5045315;28;20405;-45
2022/08/20 05:34:45;;;;;;;;;;;;;;;;;;5044682;28;20280;-45
2022/08/20 05:37:11;;;;;;;;;;;;;;;;;;5045088;28;20066;-44
2022/08/20 05:39:37;;;;;;;;;;;;;;;;;;5044656;28;20393;-45
2022/08/20 05:42:03;;;;;;;;;;;;;;;;;;5045267;28;19909;-48
2022/08/20 05:44:30;;;;;;;;;;;;;;;;;;5045428;28;19917;-43
2022/08/20 05:46:56;;;;;;;;;;;;;;;;;;5044704;28;19920;-48
2022/08/20 05:49:22;;;;;;;;;;;;;;;;;;5045011;28;19913;-46
2022/08/20 05:51:48;;;;;;;;;;;;;;;;;;5044702;28;20375;-44
2022/08/20 05:54:14;;;;;;;;;;;;;;;;;;5044700;28;19954;-44
2022/08/20 05:56:40;;;;;;;;;;;;;;;;;;5044548;28;19913;-46
2022/08/20 05:59:06;;;;;;;;;;;;;;;;;;5043237;28;19924;-44
2022/08/20 06:01:32;;;;;;;;;;;;;;;;;;5045087;28;20314;-44
2022/08/20 06:06:43;;;;;;;;;;;;;;;;;;5044396;28;19931;-45
2022/08/20 06:09:10;;;;;;;;;;;;;;;;;;5044757;28;19909;-44
2022/08/20 06:11:36;;;;;;;;;;;;;;;;;;5044761;28;20433;-45
2022/08/20 06:14:02;;;;;;;;;;;;;;;;;;5044840;28;19913;-43
2022/08/20 06:16:28;;;;;;;;;;;;;;;;;;5045491;28;19909;-46
2022/08/20 06:18:54;;;;;;;;;;;;;;;;;;5044530;28;19913;-44
2022/08/20 06:21:20;;;;;;;;;;;;;;;;;;5044801;28;19912;-45
2022/08/20 06:23:46;;;;;;;;;;;;;;;;;;5047497;28;19955;-44
2022/08/20 06:26:12;;;;;;;;;;;;;;;;;;5048569;28;20016;-47
2022/08/20 06:28:39;;;;;;;;;;;;;;;;;;5048418;28;19909;-45
2022/08/20 06:31:06;;;;;;;;;;;;;;;;;;5048125;28;19959;-46
2022/08/20 06:33:32;;;;;;;;;;;;;;;;;;5048131;28;19951;-44
2022/08/20 06:35:58;;;;;;;;;;;;;;;;;;5048848;28;20382;-43
2022/08/20 06:38:25;;;;;;;;;;;;;;;;;;5048195;28;19959;-43
2022/08/20 06:40:51;;;;;;;;;;;;;;;;;;5047967;28;19913;-45
2022/08/20 06:43:17;;;;;;;;;;;;;;;;;;5047976;28;19928;-44
2022/08/20 06:45:43;;;;;;;;;;;;;;;;;;5047573;28;19908;-45
2022/08/20 06:48:10;;;;;;;;;;;;;;;;;;5048343;28;19909;-47
2022/08/20 06:50:40;;;;;;;;;;;;;;;;;;5047857;28;19915;-45
2022/08/20 06:53:06;;;;;;;;;;;;;;;;;;5047861;28;19962;-46
2022/08/20 06:55:31;;;;;;;;;;;;;;;;;;5048306;28;20015;-43
2022/08/20 06:57:58;;;;;;;;;;;;;;;;;;5048407;28;19913;-44
2022/08/20 07:00:25;;;;;;;;;;;;;;;;;;5047670;28;20202;-44
2022/08/20 07:02:51;;;;;;;;;;;;;;;;;;5047666;28;19915;-44
2022/08/20 07:05:18;;;;;;;;;;;;;;;;;;5047583;28;19916;-44
2022/08/20 07:07:44;;;;;;;;;;;;;;;;;;5047375;28;19916;-44
2022/08/20 07:10:09;;;;;;;;;;;;;;;;;;5047588;28;19909;-43
2022/08/20 07:12:35;;;;;;;;;;;;;;;;;;5047420;28;19915;-44
2022/08/20 07:15:01;;;;;;;;;;;;;;;;;;5047915;28;19912;-43
2022/08/20 07:17:28;;;;;;;;;;;;;;;;;;5048174;28;19917;-44
2022/08/20 07:19:54;;;;;;;;;;;;;;;;;;5045926;28;19909;-43
2022/08/20 07:22:20;;;;;;;;;;;;;;;;;;5047408;28;19915;-45
2022/08/20 07:24:46;;;;;;;;;;;;;;;;;;5043904;28;20665;-46
2022/08/20 07:27:12;;;;;;;;;;;;;;;;;;5027902;28;19963;-48
2022/08/20 07:32:35;;;;;;;;;;;;;;;;;;5048638;28;19920;-49
2022/08/20 07:35:02;;;;;;;;;;;;;;;;;;5038960;28;19913;-47
2022/08/20 07:37:28;;;;;;;;;;;;;;;;;;5029000;28;19940;-47
2022/08/20 07:39:54;;;;;;;;;;;;;;;;;;5028297;28;19909;-48
2022/08/20 07:42:19;;;;;;;;;;;;;;;;;;5042355;28;19913;-44
2022/08/20 07:44:45;;;;;;;;;;;;;;;;;;5037024;28;20506;-44
2022/08/20 07:47:11;;;;;;;;;;;;;;;;;;5028441;28;19952;-45
2022/08/20 07:49:37;;;;;;;;;;;;;;;;;;5028235;28;19920;-44
2022/08/20 07:52:03;;;;;;;;;;;;;;;;;;5028198;28;20292;-47
2022/08/20 07:54:30;;;;;;;;;;;;;;;;;;5028940;28;19916;-45
2022/08/20 07:56:56;;;;;;;;;;;;;;;;;;5028027;28;19909;-45
2022/08/20 07:59:22;;;;;;;;;;;;;;;;;;5028079;28;20027;-46
2022/08/20 08:01:48;;;;;;;;;;;;;;;;;;5046715;28;19912;-44
2022/08/20 08:04:15;;;;;;;;;;;;;;;;;;5047779;28;20403;-48
2022/08/20 08:06:44;;;;;;;;;;;;;;;;;;5047399;28;19913;-47
2022/08/20 08:09:10;;;;;;;;;;;;;;;;;;5048150;28;20388;-44
2022/08/20 08:11:36;;;;;;;;;;;;;;;;;;5047624;28;19916;-47
2022/08/20 08:14:02;;;;;;;;;;;;;;;;;;5028182;28;20638;-44
2022/08/20 08:16:29;;;;;;;;;;;;;;;;;;5045338;28;20004;-46
2022/08/20 08:18:57;;;;;;;;;;;;;;;;;;5047385;28;20379;-44
2022/08/20 08:21:23;;;;;;;;;;;;;;;;;;5047668;28;20399;-45
2022/08/20 08:23:49;;;;;;;;;;;;;;;;;;5047112;28;19916;-45
2022/08/20 08:26:15;;;;;;;;;;;;;;;;;;5046170;28;19924;-45
2022/08/20 08:28:42;;;;;;;;;;;;;;;;;;5045741;28;19909;-47
2022/08/20 08:31:08;;;;;;;;;;;;;;;;;;5046092;28;19913;-44
2022/08/20 08:33:35;;;;;;;;;;;;;;;;;;5045806;28;19984;-46
2022/08/20 08:36:04;;;;;;;;;;;;;;;;;;5046484;28;19945;-48
2022/08/20 08:38:30;;;;;;;;;;;;;;;;;;5046471;28;20003;-44
2022/08/20 08:40:56;;;;;;;;;;;;;;;;;;5045619;28;20004;-49
2022/08/20 08:43:23;;;;;;;;;;;;;;;;;;5045447;28;19990;-44
2022/08/20 08:45:50;;;;;;;;;;;;;;;;;;5044797;28;19915;-44
2022/08/20 08:48:16;;;;;;;;;;;;;;;;;;5045646;28;19909;-47
2022/08/20 08:50:42;;;;;;;;;;;;;;;;;;5045527;28;19919;-48
2022/08/20 08:53:08;;;;;;;;;;;;;;;;;;5045364;28;20397;-48
2022/08/20 08:55:34;;;;;;;;;;;;;;;;;;5045499;28;19909;-47
2022/08/20 08:58:00;;;;;;;;;;;;;;;;;;5044496;28;19913;-47
2022/08/20 09:00:27;;;;;;;;;;;;;;;;;;5045949;28;19955;-45
2022/08/20 09:02:53;;;;;;;;;;;;;;;;;;5045162;28;19913;-46
2022/08/20 09:05:19;;;;;;;;;;;;;;;;;;5045495;28;20437;-44
2022/08/20 09:07:45;;;;;;;;;;;;;;;;;;5045147;28;19913;-47
2022/08/20 09:10:12;;;;;;;;;;;;;;;;;;5045631;28;19908;-46
2022/08/20 09:12:38;;;;;;;;;;;;;;;;;;5044868;28;20603;-47
2022/08/20 09:15:05;;;;;;;;;;;;;;;;;;5045531;28;19913;-49
2022/08/20 09:17:31;;;;;;;;;;;;;;;;;;5045818;28;20372;-47
2022/08/20 09:19:57;;;;;;;;;;;;;;;;;;5045523;28;19913;-45
2022/08/20 09:22:24;;;;;;;;;;;;;;;;;;5045469;28;19913;-47
2022/08/20 09:24:52;;;;;;;;;;;;;;;;;;5044952;28;20414;-47
2022/08/20 09:27:18;;;;;;;;;;;;;;;;;;5045249;28;20375;-46
2022/08/20 09:29:44;;;;;;;;;;;;;;;;;;5045032;28;20009;-46
2022/08/20 09:32:09;;;;;;;;;;;;;;;;;;5045168;28;19970;-47
2022/08/20 09:34:36;;;;;;;;;;;;;;;;;;5044809;28;19905;-46
2022/08/20 09:37:02;;;;;;;;;;;;;;;;;;5045128;28;19909;-45
2022/08/20 09:39:28;;;;;;;;;;;;;;;;;;5045762;28;19990;-47
2022/08/20 09:41:54;;;;;;;;;;;;;;;;;;5044675;28;19909;-45
2022/08/20 09:44:21;;;;;;;;;;;;;;;;;;5044926;28;19924;-46
2022/08/20 09:46:47;;;;;;;;;;;;;;;;;;5044502;28;20011;-46
2022/08/20 09:49:14;;;;;;;;;;;;;;;;;;5045289;28;20340;-45
2022/08/20 09:51:40;;;;;;;;;;;;;;;;;;5044772;28;19944;-44
2022/08/20 09:54:05;;;;;;;;;;;;;;;;;;5044936;28;19963;-46
2022/08/20 09:56:31;;;;;;;;;;;;;;;;;;5045373;28;20280;-46
2022/08/20 09:58:57;;;;;;;;;;;;;;;;;;5049473;28;19913;-44
2022/08/20 10:01:23;;;;;;;;;;;;;;;;;;5048841;28;19919;-46
2022/08/20 10:03:49;;;;;;;;;;;;;;;;;;5048786;28;19921;-47
2022/08/20 10:06:16;;;;;;;;;;;;;;;;;;5048856;28;19966;-45
2022/08/20 10:08:42;;;;;;;;;;;;;;;;;;5048594;28;19996;-45
2022/08/20 10:11:08;;;;;;;;;;;;;;;;;;5048628;28;20039;-45
2022/08/20 10:13:34;;;;;;;;;;;;;;;;;;5048122;28;19974;-45
2022/08/20 10:16:01;;;;;;;;;;;;;;;;;;5049030;28;19908;-47
2022/08/20 10:18:27;;;;;;;;;;;;;;;;;;5048627;28;19923;-46
2022/08/20 10:20:53;;;;;;;;;;;;;;;;;;5048359;28;20297;-45
2022/08/20 10:23:19;;;;;;;;;;;;;;;;;;5048302;28;20000;-46
2022/08/20 10:25:45;;;;;;;;;;;;;;;;;;5048214;28;19999;-45
2022/08/20 10:28:11;;;;;;;;;;;;;;;;;;5048617;28;19909;-46
2022/08/20 10:30:38;;;;;;;;;;;;;;;;;;5047964;28;20264;-45
2022/08/20 10:33:05;;;;;;;;;;;;;;;;;;5048322;28;19939;-46
2022/08/20 10:35:31;;;;;;;;;;;;;;;;;;5048901;28;19913;-44
2022/08/20 10:37:58;;;;;;;;;;;;;;;;;;5048436;28;19919;-48
2022/08/20 10:40:23;;;;;;;;;;;;;;;;;;5048100;28;19966;-44
2022/08/20 10:42:50;;;;;;;;;;;;;;;;;;5047629;28;19916;-44
2022/08/20 10:45:17;;;;;;;;;;;;;;;;;;5047802;28;19909;-46
2022/08/20 10:47:43;;;;;;;;;;;;;;;;;;5047741;28;20455;-48
2022/08/20 10:50:09;;;;;;;;;;;;;;;;;;5048266;28;19955;-45
2022/08/20 10:52:35;;;;;;;;;;;;;;;;;;5047608;28;19919;-45
2022/08/20 10:55:03;;;;;;;;;;;;;;;;;;5048479;28;20379;-45
2022/08/20 10:57:28;;;;;;;;;;;;;;;;;;5048234;28;19916;-44
2022/08/20 10:59:54;;;;;;;;;;;;;;;;;;5047504;28;19919;-46
2022/08/20 11:02:20;;;;;;;;;;;;;;;;;;5047845;28;19955;-47
2022/08/20 11:04:46;;;;;;;;;;;;;;;;;;5047237;28;19971;-48
2022/08/20 11:07:12;;;;;;;;;;;;;;;;;;5047598;28;19909;-48
2022/08/20 11:09:38;;;;;;;;;;;;;;;;;;5046383;28;19909;-48
2022/08/20 11:12:04;;;;;;;;;;;;;;;;;;5047259;28;19917;-46
2022/08/20 11:14:30;;;;;;;;;;;;;;;;;;5047952;28;20137;-45
2022/08/20 11:16:56;;;;;;;;;;;;;;;;;;5047276;28;19915;-48
2022/08/20 11:19:22;;;;;;;;;;;;;;;;;;5047669;28;20004;-47
2022/08/20 11:21:47;;;;;;;;;;;;;;;;;;5047003;28;19909;-46
2022/08/20 11:24:13;;;;;;;;;;;;;;;;;;5047278;28;19920;-45
2022/08/20 11:26:39;;;;;;;;;;;;;;;;;;5046826;28;19920;-48
2022/08/20 11:29:05;;;;;;;;;;;;;;;;;;5047080;28;19920;-45
2022/08/20 11:31:31;;;;;;;;;;;;;;;;;;5047964;28;20330;-45
2022/08/20 11:33:58;;;;;;;;;;;;;;;;;;5047428;28;19963;-46
2022/08/20 11:36:25;;;;;;;;;;;;;;;;;;5047234;28;19913;-45
2022/08/20 11:38:51;;;;;;;;;;;;;;;;;;5046799;28;19912;-46
2022/08/20 11:41:17;;;;;;;;;;;;;;;;;;5046711;28;19996;-46
2022/08/20 11:43:43;;;;;;;;;;;;;;;;;;5045994;28;20400;-48
2022/08/20 11:46:09;;;;;;;;;;;;;;;;;;5047060;28;19920;-45
2022/08/20 11:48:34;;;;;;;;;;;;;;;;;;5046582;28;19964;-45
2022/08/20 11:51:01;;;;;;;;;;;;;;;;;;5047440;28;19913;-45
2022/08/20 11:53:26;;;;;;;;;;;;;;;;;;5046800;28;19970;-46
2022/08/20 11:55:53;;;;;;;;;;;;;;;;;;5046238;28;20387;-45
2022/08/20 11:58:19;;;;;;;;;;;;;;;;;;5046828;28;19916;-44
2022/08/20 12:00:45;;;;;;;;;;;;;;;;;;5046401;28;20414;-46
2022/08/20 12:03:12;;;;;;;;;;;;;;;;;;5045466;28;19909;-44
2022/08/20 12:05:38;;;;;;;;;;;;;;;;;;5045288;28;20323;-45
2022/08/20 12:08:04;;;;;;;;;;;;;;;;;;5046380;28;19971;-49
2022/08/20 12:10:30;;;;;;;;;;;;;;;;;;5046948;28;19913;-47
2022/08/20 12:12:55;;;;;;;;;;;;;;;;;;5046158;28;19958;-45
2022/08/20 12:15:21;;;;;;;;;;;;;;;;;;5046291;28;19958;-44
2022/08/20 12:17:48;;;;;;;;;;;;;;;;;;5046137;28;19912;-45
2022/08/20 12:20:15;;;;;;;;;;;;;;;;;;5045171;28;19912;-44
2022/08/20 12:22:42;;;;;;;;;;;;;;;;;;5046113;28;19912;-46
2022/08/20 12:25:08;;;;;;;;;;;;;;;;;;5045919;28;19944;-45
2022/08/20 12:27:34;;;;;;;;;;;;;;;;;;5045771;28;20425;-44
2022/08/20 12:30:00;;;;;;;;;;;;;;;;;;5046757;28;20395;-45
2022/08/20 12:32:26;;;;;;;;;;;;;;;;;;5046026;28;20318;-46
2022/08/20 12:34:53;;;;;;;;;;;;;;;;;;5045653;28;19913;-46
2022/08/20 12:37:19;;;;;;;;;;;;;;;;;;5045025;28;19971;-44
2022/08/20 12:39:44;;;;;;;;;;;;;;;;;;5045349;28;20268;-47
2022/08/20 12:42:11;;;;;;;;;;;;;;;;;;5044989;28;19912;-46
2022/08/20 12:44:37;;;;;;;;;;;;;;;;;;5044993;28;19917;-47
2022/08/20 12:47:03;;;;;;;;;;;;;;;;;;5046844;28;19943;-46
2022/08/20 12:49:29;;;;;;;;;;;;;;;;;;5047148;28;19917;-46
2022/08/20 12:51:55;;;;;;;;;;;;;;;;;;5046009;28;19940;-46
2022/08/20 12:54:21;;;;;;;;;;;;;;;;;;5045850;28;20387;-45
2022/08/20 12:56:47;;;;;;;;;;;;;;;;;;5045206;28;20174;-46
2022/08/20 12:59:13;;;;;;;;;;;;;;;;;;5045468;28;19923;-45
2022/08/20 13:01:39;;;;;;;;;;;;;;;;;;5045558;28;19916;-46
2022/08/20 13:04:05;;;;;;;;;;;;;;;;;;5045298;28;19924;-45
2022/08/20 13:06:31;;;;;;;;;;;;;;;;;;5045454;28;20486;-47
2022/08/20 13:08:56;;;;;;;;;;;;;;;;;;5045276;28;19963;-46
2022/08/20 13:11:23;;;;;;;;;;;;;;;;;;5045747;28;20160;-46
2022/08/20 13:13:49;;;;;;;;;;;;;;;;;;5045409;28;20305;-48
2022/08/20 13:16:16;;;;;;;;;;;;;;;;;;5045412;28;19920;-46
2022/08/20 13:18:42;;;;;;;;;;;;;;;;;;5045049;28;19913;-45
2022/08/20 13:21:08;;;;;;;;;;;;;;;;;;5045225;28;19916;-46
2022/08/20 13:23:34;;;;;;;;;;;;;;;;;;5044751;28;20004;-45
2022/08/20 13:26:00;;;;;;;;;;;;;;;;;;5045025;28;19916;-47
2022/08/20 13:28:26;;;;;;;;;;;;;;;;;;5045196;28;19909;-47
2022/08/20 13:30:52;;;;;;;;;;;;;;;;;;5045108;28;20383;-47
2022/08/20 13:33:18;;;;;;;;;;;;;;;;;;5045389;28;19908;-46
2022/08/20 13:35:43;;;;;;;;;;;;;;;;;;5045195;28;20088;-46
2022/08/20 13:38:09;;;;;;;;;;;;;;;;;;5044863;28;19916;-45
2022/08/20 13:40:35;;;;;;;;;;;;;;;;;;5044555;28;19964;-45
2022/08/20 13:43:01;;;;;;;;;;;;;;;;;;5045174;28;19919;-45
2022/08/20 13:45:27;;;;;;;;;;;;;;;;;;5044773;28;19909;-45
2022/08/20 13:47:53;;;;;;;;;;;;;;;;;;5044820;28;19909;-45
2022/08/20 13:50:19;;;;;;;;;;;;;;;;;;5045531;28;19970;-45
2022/08/20 13:52:45;;;;;;;;;;;;;;;;;;5044562;28;19913;-47
2022/08/20 13:55:11;;;;;;;;;;;;;;;;;;5044635;28;19974;-46
2022/08/20 13:57:37;;;;;;;;;;;;;;;;;;5044543;28;20391;-45
2022/08/20 14:00:02;;;;;;;;;;;;;;;;;;5044840;28;20315;-46
2022/08/20 14:02:29;;;;;;;;;;;;;;;;;;5044920;28;19917;-45
2022/08/20 14:04:55;;;;;;;;;;;;;;;;;;5044582;28;19917;-47
2022/08/20 14:07:21;;;;;;;;;;;;;;;;;;5045365;28;19915;-47
2022/08/20 14:09:47;;;;;;;;;;;;;;;;;;5044235;28;19915;-46
2022/08/20 14:12:13;;;;;;;;;;;;;;;;;;5044896;28;19913;-46
2022/08/20 14:14:39;;;;;;;;;;;;;;;;;;5044340;28;20319;-47
2022/08/20 14:17:05;;;;;;;;;;;;;;;;;;5044835;28;19916;-45
2022/08/20 14:19:31;;;;;;;;;;;;;;;;;;5044776;28;19920;-46
2022/08/20 14:21:57;;;;;;;;;;;;;;;;;;5044518;28;20391;-45
2022/08/20 14:24:22;;;;;;;;;;;;;;;;;;5044970;28;19935;-46
2022/08/20 14:26:48;;;;;;;;;;;;;;;;;;5044795;28;20346;-45
2022/08/20 14:29:18;;;;;;;;;;;;;;;;;;5044970;28;19916;-46
2022/08/20 14:31:45;;;;;;;;;;;;;;;;;;5044185;28;19912;-46
2022/08/20 14:34:11;;;;;;;;;;;;;;;;;;5042890;28;20387;-45
2022/08/20 14:36:38;;;;;;;;;;;;;;;;;;5044569;28;20103;-45
2022/08/20 14:39:04;;;;;;;;;;;;;;;;;;5044692;28;19956;-46
2022/08/20 14:41:30;;;;;;;;;;;;;;;;;;5044931;28;20078;-47
2022/08/20 14:43:56;;;;;;;;;;;;;;;;;;5045978;28;20450;-46
2022/08/20 14:46:22;;;;;;;;;;;;;;;;;;5048264;28;19954;-46
2022/08/20 14:48:48;;;;;;;;;;;;;;;;;;5047560;28;19908;-46
2022/08/20 14:51:14;;;;;;;;;;;;;;;;;;5047977;28;19924;-47
2022/08/20 14:53:40;;;;;;;;;;;;;;;;;;5047438;28;19909;-45
2022/08/20 14:56:07;;;;;;;;;;;;;;;;;;5048083;28;20391;-45
2022/08/20 14:58:32;;;;;;;;;;;;;;;;;;5048034;28;20414;-46
2022/08/20 15:00:58;;;;;;;;;;;;;;;;;;5047632;28;19909;-46
2022/08/20 15:03:29;;;;;;;;;;;;;;;;;;5047722;28;19924;-46
2022/08/20 15:05:55;;;;;;;;;;;;;;;;;;5047103;28;19966;-45
2022/08/20 15:08:21;;;;;;;;;;;;;;;;;;5047698;28;19919;-46
2022/08/20 15:10:47;;;;;;;;;;;;;;;;;;5047192;28;19909;-45
2022/08/20 15:13:12;;;;;;;;;;;;;;;;;;5047637;28;19909;-45
2022/08/20 15:15:39;;;;;;;;;;;;;;;;;;5047153;28;19915;-46
2022/08/20 15:18:05;;;;;;;;;;;;;;;;;;5047783;28;19927;-46
2022/08/20 15:20:31;;;;;;;;;;;;;;;;;;5047917;28;19912;-47
2022/08/20 15:22:57;;;;;;;;;;;;;;;;;;5047462;28;20501;-46
2022/08/20 15:25:23;;;;;;;;;;;;;;;;;;5045819;28;19991;-45
2022/08/20 15:27:48;;;;;;;;;;;;;;;;;;5046998;28;20396;-46
2022/08/20 15:30:14;;;;;;;;;;;;;;;;;;5047268;28;19917;-45
2022/08/20 15:32:41;;;;;;;;;;;;;;;;;;5046909;28;19940;-46
2022/08/20 15:35:10;;;;;;;;;;;;;;;;;;5047198;28;20289;-46
2022/08/20 15:37:36;;;;;;;;;;;;;;;;;;5047079;28;19970;-45
2022/08/20 15:40:02;;;;;;;;;;;;;;;;;;5047538;28;19913;-46
2022/08/20 15:42:28;;;;;;;;;;;;;;;;;;5046752;28;19916;-46
2022/08/20 15:44:54;;;;;;;;;;;;;;;;;;5046689;28;19913;-45
2022/08/20 15:47:19;;;;;;;;;;;;;;;;;;5046795;28;19908;-47
2022/08/20 15:49:45;;;;;;;;;;;;;;;;;;5046542;28;19908;-46
2022/08/20 15:52:11;;;;;;;;;;;;;;;;;;5046919;28;19913;-48
2022/08/20 15:54:38;;;;;;;;;;;;;;;;;;5046136;28;19916;-45
2022/08/20 15:57:04;;;;;;;;;;;;;;;;;;5047233;28;19952;-46
2022/08/20 15:59:30;;;;;;;;;;;;;;;;;;5046627;28;19956;-47
2022/08/20 16:01:56;;;;;;;;;;;;;;;;;;5046307;28;20289;-46
2022/08/20 16:04:22;;;;;;;;;;;;;;;;;;5046431;28;19990;-46
2022/08/20 16:06:48;;;;;;;;;;;;;;;;;;5046323;28;19999;-48
2022/08/20 16:09:13;;;;;;;;;;;;;;;;;;5046297;28;20221;-47
2022/08/20 16:11:39;;;;;;;;;;;;;;;;;;5046206;28;19908;-46
2022/08/20 16:14:05;;;;;;;;;;;;;;;;;;5046937;28;19909;-45
2022/08/20 16:16:32;;;;;;;;;;;;;;;;;;5046852;28;19912;-47
2022/08/20 16:18:58;;;;;;;;;;;;;;;;;;5046160;28;19952;-45
2022/08/20 16:21:24;;;;;;;;;;;;;;;;;;5046133;28;19940;-45
2022/08/20 16:23:50;;;;;;;;;;;;;;;;;;5045143;28;20003;-46
2022/08/20 16:26:16;;;;;;;;;;;;;;;;;;5046942;28;19913;-45
2022/08/20 16:28:42;;;;;;;;;;;;;;;;;;5047094;28;19959;-46
2022/08/20 16:31:08;;;;;;;;;;;;;;;;;;5046552;28;19909;-46
2022/08/20 16:33:34;;;;;;;;;;;;;;;;;;5046435;28;19916;-48
2022/08/20 16:36:00;;;;;;;;;;;;;;;;;;5047890;28;19909;-48
2022/08/20 16:38:27;;;;;;;;;;;;;;;;;;5046618;28;19990;-46
2022/08/20 16:40:53;;;;;;;;;;;;;;;;;;5027407;28;20355;-48
2022/08/20 16:43:19;;;;;;;;;;;;;;;;;;5042194;28;19960;-46